Time;durP1;ratioP1;P1;durP2;ratioP2;P2;SDS_P1;SDS_P2;PMS_P1;PMS_P2;Temp;Humidity;BMP_temperature;BMP_pressure;BME280_temperature;BME280_humidity;BME280_pressure;Samples;Min_cycle;Max_cycle;Signal;HPM_P1;HPM_P2
2022/08/19 00:01:47;;;;;;;13.83;10.72;;;;;;;20.45;86.41;100147.86;1759510;81;20990;-92
2022/08/19 00:04:18;;;;;;;12.25;10.35;;;;;;;20.43;86.40;100150.33;1758681;81;20869;-92
2022/08/19 00:06:46;;;;;;;14.25;11.53;;;;;;;20.40;86.30;100142.69;1758707;81;20951;-93
2022/08/19 00:09:16;;;;;;;16.85;11.70;;;;;;;20.36;86.55;100146.17;1758512;81;21269;-93
2022/08/19 00:11:44;;;;;;;14.83;11.00;;;;;;;20.34;86.81;100141.51;1758891;80;20876;-92
2022/08/19 00:14:15;;;;;;;12.13;10.82;;;;;;;20.31;86.79;100141.85;1758707;80;20884;-92
2022/08/19 00:16:44;;;;;;;12.40;10.68;;;;;;;20.29;86.67;100143.84;1758625;80;20920;-94
2022/08/19 00:19:10;;;;;;;12.00;9.88;;;;;;;20.26;86.58;100134.88;1759000;81;20893;-93
2022/08/19 00:21:38;;;;;;;13.10;10.48;;;;;;;20.24;86.58;100137.70;1758844;81;21223;-92
2022/08/19 00:24:07;;;;;;;11.57;10.30;;;;;;;20.22;86.54;100140.20;1746391;81;21426;-93
2022/08/19 00:26:33;;;;;;;14.15;10.63;;;;;;;20.18;86.68;100143.68;1745403;82;20920;-91
2022/08/19 00:29:01;;;;;;;11.80;10.65;;;;;;;20.19;86.96;100151.19;1745035;81;20949;-91
2022/08/19 00:31:28;;;;;;;11.70;10.48;;;;;;;20.18;87.08;100149.51;1745068;81;20905;-91
2022/08/19 00:33:55;;;;;;;10.85;9.83;;;;;;;20.17;87.15;100150.02;1745052;81;21060;-91
2022/08/19 00:36:21;;;;;;;11.63;10.53;;;;;;;20.16;87.41;100152.33;1745368;81;21417;-91
2022/08/19 00:38:48;;;;;;;13.62;11.22;;;;;;;20.16;87.41;100148.34;1745177;81;20992;-90
2022/08/19 00:41:20;;;;;;;13.00;11.43;;;;;;;20.16;87.58;100149.67;1745201;82;20984;-91
2022/08/19 00:44:10;;;;;;;11.65;10.63;;;;;;;20.10;87.30;100139.70;1745341;82;20975;-91
2022/08/19 00:46:42;;;;;;;12.58;9.85;;;;;;;20.16;87.07;100143.02;1745198;81;21159;-90
2022/08/19 00:49:35;;;;;;;12.50;10.65;;;;;;;20.17;86.85;100143.86;1687801;84;20885;-92
2022/08/19 00:52:10;;;;;;;11.70;10.05;;;;;;;20.17;86.71;100147.35;1743211;82;20929;-91
2022/08/19 00:54:38;;;;;;;12.28;11.12;;;;;;;20.17;86.57;100143.86;1745496;81;20948;-92
2022/08/19 00:57:09;;;;;;;11.90;10.68;;;;;;;20.16;86.39;100148.34;1745590;82;21496;-91
2022/08/19 00:59:36;;;;;;;13.30;10.43;;;;;;;20.17;86.46;100142.03;1747505;79;21155;-88
2022/08/19 01:02:04;;;;;;;12.47;10.18;;;;;;;20.18;86.47;100139.69;1747530;79;20983;-89
2022/08/19 01:04:31;;;;;;;13.83;11.48;;;;;;;20.17;86.36;100134.04;1747288;80;20889;-91
2022/08/19 01:06:58;;;;;;;11.93;10.43;;;;;;;20.18;86.45;100133.53;1747692;79;20869;-87
2022/08/19 01:09:25;;;;;;;12.25;10.10;;;;;;;20.15;86.51;100137.37;1747455;82;21031;-88
2022/08/19 01:11:52;;;;;;;13.35;12.00;;;;;;;20.15;86.70;100139.20;1745767;81;21362;-90
2022/08/19 01:14:18;;;;;;;13.50;12.40;;;;;;;20.14;86.79;100140.19;1745303;82;20999;-91
2022/08/19 01:16:46;;;;;;;11.68;10.68;;;;;;;20.14;86.93;100140.19;1745326;82;20976;-90
2022/08/19 01:19:21;;;;;;;15.40;10.23;;;;;;;20.16;87.14;100143.02;1745576;81;20865;-90
2022/08/19 01:21:53;;;;;;;12.55;10.98;;;;;;;20.18;87.04;100143.68;1745852;82;21067;-89
2022/08/19 01:24:19;;;;;;;11.22;9.98;;;;;;;20.19;86.96;100143.20;1746359;82;21131;-89
2022/08/19 01:26:46;;;;;;;13.03;10.95;;;;;;;20.19;86.73;100141.87;1746368;80;20968;-88
2022/08/19 01:29:13;;;;;;;11.63;10.18;;;;;;;20.21;86.77;100146.50;1745663;81;20873;-90
2022/08/19 01:31:40;;;;;;;11.83;9.75;;;;;;;20.22;86.59;100143.69;1745498;82;20893;-89
2022/08/19 01:34:07;;;;;;;11.20;10.00;;;;;;;20.23;86.42;100147.17;1745600;81;20901;-91
2022/08/19 01:36:46;;;;;;;13.70;10.88;;;;;;;20.23;86.38;100155.16;1745190;81;21255;-89
2022/08/19 01:39:21;;;;;;;11.80;10.35;;;;;;;20.23;86.38;100156.02;1745040;81;20878;-89
2022/08/19 01:41:48;;;;;;;12.30;10.90;;;;;;;20.22;86.33;100154.34;1745044;80;20936;-91
2022/08/19 01:44:15;;;;;;;12.03;10.53;;;;;;;20.21;86.42;100146.03;1744921;82;21430;-89
2022/08/19 01:46:44;;;;;;;11.85;10.58;;;;;;;20.21;86.52;100141.17;1744905;82;20916;-91
2022/08/19 01:49:11;;;;;;;10.60;9.60;;;;;;;20.20;86.59;100150.18;1744982;82;21300;-91
2022/08/19 01:51:38;;;;;;;11.60;10.23;;;;;;;20.20;86.57;100143.52;1745152;82;20928;-90
2022/08/19 01:54:05;;;;;;;11.60;9.75;;;;;;;20.19;86.59;100145.36;1745346;81;20913;-89
2022/08/19 01:56:33;;;;;;;11.60;10.50;;;;;;;20.20;86.68;100135.03;1746220;82;20885;-86
2022/08/19 01:59:03;;;;;;;11.53;10.35;;;;;;;20.20;86.58;100143.02;1746392;80;20979;-89
2022/08/19 02:01:32;;;;;;;13.58;9.75;;;;;;;20.19;86.69;100146.69;1745434;82;21824;-90
2022/08/19 02:04:00;;;;;;;12.63;10.40;;;;;;;20.19;86.86;100148.53;1745018;81;20979;-91
2022/08/19 02:06:28;;;;;;;11.63;9.78;;;;;;;20.19;86.95;100144.03;1745108;82;20896;-91
2022/08/19 02:08:55;;;;;;;13.20;11.65;;;;;;;20.19;87.05;100143.20;1745124;82;20936;-90
2022/08/19 02:11:26;;;;;;;10.98;9.88;;;;;;;20.20;87.28;100139.02;1745193;82;20893;-89
2022/08/19 02:13:54;;;;;;;10.72;9.43;;;;;;;20.22;87.30;100135.70;1745128;81;21249;-90
2022/08/19 02:16:21;;;;;;;12.05;10.78;;;;;;;20.25;87.28;100146.51;1745080;81;20960;-90
2022/08/19 02:18:48;;;;;;;10.95;9.78;;;;;;;20.26;87.38;100149.52;1745360;80;21504;-90
2022/08/19 02:21:18;;;;;;;13.32;10.25;;;;;;;20.27;87.21;100143.18;1745693;82;21015;-91
2022/08/19 02:23:44;;;;;;;15.68;10.28;;;;;;;20.27;87.04;100150.66;1750854;80;20861;-91
2022/08/19 02:26:12;;;;;;;12.20;10.20;;;;;;;20.28;86.92;100144.86;1758633;81;21272;-91
2022/08/19 02:28:40;;;;;;;11.25;10.23;;;;;;;20.29;86.86;100148.67;1758467;81;20959;-90
2022/08/19 02:31:12;;;;;;;11.97;10.88;;;;;;;20.32;86.96;100149.34;1759589;80;20888;-88
2022/08/19 02:33:38;;;;;;;12.80;10.70;;;;;;;20.34;86.87;100146.01;1759208;81;21479;-88
2022/08/19 02:36:07;;;;;;;11.08;10.08;;;;;;;20.33;86.79;100144.36;1759967;81;20927;-89
2022/08/19 02:38:35;;;;;;;11.28;10.28;;;;;;;20.33;86.83;100145.19;1759785;81;21258;-88
2022/08/19 02:41:09;;;;;;;18.50;11.25;;;;;;;20.33;86.84;100143.85;1759447;80;20915;-89
2022/08/19 02:43:36;;;;;;;11.28;10.15;;;;;;;20.34;86.94;100142.84;1758897;81;20916;-88
2022/08/19 02:46:20;;;;;;;12.53;11.03;;;;;;;20.32;86.95;100134.22;1758396;81;21389;-89
2022/08/19 02:48:55;;;;;;;12.28;10.23;;;;;;;20.31;87.03;100136.53;1758741;81;21066;-89
2022/08/19 02:51:26;;;;;;;15.68;11.25;;;;;;;20.28;87.07;100133.70;1758426;81;21228;-89
2022/08/19 02:53:52;;;;;;;15.65;10.88;;;;;;;20.29;87.19;100142.52;1758187;81;21365;-89
2022/08/19 02:56:19;;;;;;;12.73;11.45;;;;;;;20.29;87.44;100141.19;1758557;81;21433;-90
2022/08/19 02:58:48;;;;;;;17.12;11.33;;;;;;;20.31;87.47;100139.70;1759449;80;20998;-90
2022/08/19 03:01:25;;;;;;;12.35;10.23;;;;;;;20.31;87.58;100144.52;1759176;81;21034;-90
2022/08/19 03:03:52;;;;;;;12.15;10.43;;;;;;;20.30;87.59;100145.53;1759641;81;21273;-90
2022/08/19 03:06:19;;;;;;;11.33;10.23;;;;;;;20.31;87.73;100153.02;1744271;80;20955;-90
2022/08/19 03:08:46;;;;;;;11.93;10.82;;;;;;;20.32;87.96;100156.85;1760385;80;21457;-89
2022/08/19 03:11:19;;;;;;;14.63;12.90;;;;;;;20.34;87.92;100152.66;1759060;81;20919;-90
2022/08/19 03:13:46;;;;;;;17.90;14.43;;;;;;;20.36;88.07;100158.16;1759509;81;21019;-89
2022/08/19 03:16:12;;;;;;;14.03;12.58;;;;;;;20.41;88.87;100161.64;1759692;81;21967;-90
2022/08/19 03:18:39;;;;;;;13.60;12.20;;;;;;;20.47;89.11;100155.66;1760254;81;20947;-92
2022/08/19 03:21:06;;;;;;;12.95;11.65;;;;;;;20.52;88.96;100161.33;1759913;81;21023;-90
2022/08/19 03:23:34;;;;;;;11.53;10.40;;;;;;;20.57;88.87;100166.19;1755947;80;20899;-92
2022/08/19 03:26:04;;;;;;;11.73;10.63;;;;;;;20.60;88.78;100164.51;1745671;81;20896;-90
2022/08/19 03:28:33;;;;;;;11.75;10.10;;;;;;;20.62;88.63;100166.51;1745766;81;20916;-92
2022/08/19 03:31:04;;;;;;;14.10;11.85;;;;;;;20.64;88.47;100165.33;1745466;81;20901;-91
2022/08/19 03:33:32;;;;;;;12.65;11.10;;;;;;;20.66;88.51;100167.33;1745763;82;20897;-92
2022/08/19 03:36:11;;;;;;;12.68;11.45;;;;;;;20.71;88.55;100164.16;1745359;81;20988;-92
2022/08/19 03:38:41;;;;;;;13.65;10.98;;;;;;;20.75;88.27;100167.33;1745877;82;20936;-92
2022/08/19 03:41:11;;;;;;;11.97;10.88;;;;;;;20.77;87.91;100166.66;1745806;81;21161;-91
2022/08/19 03:43:39;;;;;;;18.65;12.93;;;;;;;20.79;87.72;100166.81;1745077;82;21374;-91
2022/08/19 03:46:09;;;;;;;12.82;11.73;;;;;;;20.81;87.59;100166.63;1745083;81;20980;-90
2022/08/19 03:48:36;;;;;;;15.50;12.65;;;;;;;20.84;87.78;100176.97;1744981;81;20850;-91
2022/08/19 03:51:05;;;;;;;14.33;12.93;;;;;;;20.87;87.89;100169.95;1745116;82;20885;-91
2022/08/19 03:53:32;;;;;;;15.03;11.85;;;;;;;20.90;87.82;100169.13;1745064;81;21788;-91
2022/08/19 03:55:59;;;;;;;13.32;11.65;;;;;;;20.95;87.82;100172.61;1745982;81;20937;-91
2022/08/19 03:58:28;;;;;;;13.22;10.55;;;;;;;20.99;87.77;100181.11;1747698;80;21008;-91
2022/08/19 04:00:56;;;;;;;13.43;11.90;;;;;;;21.01;87.74;100181.73;1747487;81;20905;-91
2022/08/19 04:03:26;;;;;;;14.28;12.47;;;;;;;21.04;87.81;100181.42;1747862;82;20908;-92
2022/08/19 04:05:54;;;;;;;14.78;13.30;;;;;;;21.08;87.90;100178.75;1746635;81;21239;-91
2022/08/19 04:08:22;;;;;;;15.28;13.78;;;;;;;21.11;88.00;100181.88;1745907;82;20920;-92
2022/08/19 04:10:50;;;;;;;15.38;13.83;;;;;;;21.17;88.24;100180.89;1745442;82;20948;-91
2022/08/19 04:13:18;;;;;;;14.75;13.35;;;;;;;21.26;88.29;100179.85;1745300;81;20991;-91
2022/08/19 04:15:46;;;;;;;15.98;14.38;;;;;;;21.33;88.26;100176.81;1745066;80;21382;-92
2022/08/19 04:18:14;;;;;;;15.53;13.90;;;;;;;21.42;88.26;100175.80;1745237;82;21247;-92
2022/08/19 04:20:46;;;;;;;16.90;13.55;;;;;;;21.51;88.60;100173.93;1745320;82;20853;-91
2022/08/19 04:23:13;;;;;;;15.20;13.68;;;;;;;21.62;88.53;100174.05;1745532;82;20944;-91
2022/08/19 04:25:42;;;;;;;14.58;12.28;;;;;;;21.73;88.42;100175.81;1744947;82;20933;-91
2022/08/19 04:28:12;;;;;;;15.95;13.55;;;;;;;21.84;88.25;100177.77;1745079;81;20975;-92
2022/08/19 04:30:49;;;;;;;17.27;15.45;;;;;;;21.96;88.11;100178.17;1745617;82;21167;-91
2022/08/19 04:33:19;;;;;;;15.25;13.58;;;;;;;22.09;87.94;100179.76;1746425;81;21020;-90
2022/08/19 04:35:48;;;;;;;14.60;13.30;;;;;;;22.21;87.64;100175.67;1747177;82;20917;-89
2022/08/19 04:38:16;;;;;;;17.82;13.15;;;;;;;22.32;87.44;100183.30;1745210;82;20909;-91
2022/08/19 04:43:31;;;;;;;14.78;13.20;;;;;;;22.56;87.16;100186.23;1734461;82;21150;-91
2022/08/19 04:45:58;;;;;;;17.70;14.87;;;;;;;22.72;86.77;100184.42;1745197;81;21409;-90
2022/08/19 04:48:25;;;;;;;17.32;13.55;;;;;;;22.83;86.40;100188.50;1747545;82;20862;-90
2022/08/19 04:50:57;;;;;;;18.90;13.80;;;;;;;22.96;86.11;100185.52;1746345;81;20929;-91
2022/08/19 04:53:28;;;;;;;16.35;13.65;;;;;;;23.12;85.67;100186.38;1745348;81;21386;-92
2022/08/19 04:55:58;;;;;;;17.20;14.63;;;;;;;23.26;84.95;100179.39;1745167;82;21144;-91
2022/08/19 04:58:27;;;;;;;15.43;13.85;;;;;;;23.45;84.48;100195.36;1745094;81;20995;-90
2022/08/19 05:00:53;;;;;;;20.15;14.58;;;;;;;23.65;83.79;100196.43;1745115;82;20928;-91
2022/08/19 05:03:20;;;;;;;16.52;14.30;;;;;;;23.83;82.59;100199.24;1745073;81;21465;-90
2022/08/19 05:05:50;;;;;;;14.75;13.43;;;;;;;24.03;81.87;100199.45;1744935;80;20980;-90
2022/08/19 05:08:20;;;;;;;14.75;13.45;;;;;;;24.39;81.28;100198.07;1745159;81;21286;-91
2022/08/19 05:10:49;;;;;;;14.28;12.90;;;;;;;24.89;79.62;100198.88;1745186;82;21421;-91
2022/08/19 05:13:18;;;;;;;19.50;13.45;;;;;;;25.44;77.35;100203.05;1745680;81;20897;-91
2022/08/19 05:15:54;;;;;;;13.78;12.37;;;;;;;26.00;75.05;100209.56;1746495;82;20936;-91
2022/08/19 05:23:54;;;;;;;16.50;11.38;;;;;;;27.71;68.10;100218.74;1746594;81;21098;-92
2022/08/19 05:26:21;;;;;;;19.20;14.75;;;;;;;28.24;66.14;100216.30;1758818;80;20939;-93
2022/08/19 05:28:48;;;;;;;14.73;13.20;;;;;;;28.70;64.47;100221.36;1741765;81;20959;-92
2022/08/19 05:34:00;;;;;;;13.50;11.18;;;;;;;29.48;61.23;100223.16;1757795;81;21254;-91
2022/08/19 05:36:27;;;;;;;24.15;10.95;;;;;;;29.83;60.11;100223.89;1758382;81;20959;-92
2022/08/19 05:38:54;;;;;;;17.00;10.98;;;;;;;30.10;59.17;100218.42;1759236;81;21410;-92
2022/08/19 05:41:23;;;;;;;19.75;17.73;;;;;;;30.40;58.32;100228.40;1758453;81;20880;-90
2022/08/19 05:43:50;;;;;;;16.37;14.80;;;;;;;30.73;57.18;100234.61;1758840;80;21512;-91
2022/08/19 05:46:18;;;;;;;16.27;12.23;;;;;;;31.09;56.29;100227.33;1759176;81;21239;-92
2022/08/19 05:48:46;;;;;;;25.27;17.35;;;;;;;31.46;55.42;100222.16;1759587;80;20932;-93
2022/08/19 05:51:12;;;;;;;22.02;17.92;;;;;;;31.78;52.38;100232.03;1760149;81;20983;-91
2022/08/19 05:53:39;;;;;;;18.40;15.93;;;;;;;32.01;50.56;100233.83;1759632;80;21457;-91
2022/08/19 05:56:08;;;;;;;19.50;13.62;;;;;;;32.25;50.27;100231.82;1759499;81;20983;-90
2022/08/19 05:58:36;;;;;;;17.40;15.08;;;;;;;32.58;49.65;100220.19;1760019;80;21203;-90
2022/08/19 06:01:05;;;;;;;15.08;13.38;;;;;;;32.91;48.69;100220.41;1759391;80;20877;-92
2022/08/19 06:03:33;;;;;;;14.70;13.03;;;;;;;33.22;47.93;100214.34;1759505;81;20881;-89
2022/08/19 06:05:59;;;;;;;16.27;14.60;;;;;;;33.54;47.33;100225.86;1759212;80;20931;-90
2022/08/19 06:08:27;;;;;;;13.88;12.53;;;;;;;33.89;46.66;100217.04;1759117;80;20995;-91
2022/08/19 06:10:54;;;;;;;16.50;12.43;;;;;;;34.24;45.92;100216.55;1759533;81;21221;-91
2022/08/19 06:13:21;;;;;;;12.78;10.40;;;;;;;34.54;45.73;100214.63;1759722;81;20924;-92
2022/08/19 06:15:48;;;;;;;13.08;11.20;;;;;;;34.82;45.53;100212.69;1760462;81;20943;-92
2022/08/19 06:18:14;;;;;;;11.75;10.63;;;;;;;35.06;45.35;100219.87;1761262;80;20857;-91
2022/08/19 06:20:41;;;;;;;19.45;16.07;;;;;;;35.32;44.52;100215.41;1760999;80;20876;-90
2022/08/19 06:23:08;;;;;;;16.12;11.65;;;;;;;35.58;43.96;100217.69;1761380;81;21081;-91
2022/08/19 06:25:36;;;;;;;17.45;11.20;;;;;;;35.74;43.43;100222.66;1734773;81;20892;-93
2022/08/19 06:28:03;;;;;;;11.38;10.35;;;;;;;35.89;43.16;100228.16;1722160;81;20958;-90
2022/08/19 06:30:29;;;;;;;13.40;11.90;;;;;;;35.97;42.58;100235.53;1721739;80;20860;-90
2022/08/19 06:32:56;;;;;;;16.02;14.03;;;;;;;36.05;42.62;100239.91;1722049;80;20970;-91
2022/08/19 06:35:23;;;;;;;18.55;15.32;;;;;;;35.95;42.10;100250.80;1720620;82;21373;-92
2022/08/19 06:37:49;;;;;;;14.65;13.10;;;;;;;35.84;41.98;100247.27;1719762;82;20913;-93
2022/08/19 06:40:16;;;;;;;14.33;12.80;;;;;;;35.81;42.21;100247.78;1720301;83;20971;-93
2022/08/19 06:42:43;;;;;;;16.52;12.70;;;;;;;35.83;42.11;100255.16;1720095;83;21326;-93
2022/08/19 06:45:10;;;;;;;13.03;11.85;;;;;;;35.84;41.87;100245.89;1692431;83;20943;-94
2022/08/19 06:47:39;;;;;;;15.65;14.20;;;;;;;35.83;41.89;100244.23;1720381;83;21180;-95
2022/08/19 06:50:08;;;;;;;15.00;13.40;;;;;;;35.88;41.34;100248.34;1720034;83;20979;-95
2022/08/19 06:52:35;;;;;;;14.95;12.80;;;;;;;35.89;41.08;100245.09;1720024;83;20872;-94
2022/08/19 06:55:04;;;;;;;17.10;12.68;;;;;;;35.89;40.81;100249.17;1721794;80;21116;-92
2022/08/19 06:57:32;;;;;;;16.35;14.10;;;;;;;36.01;40.81;100255.19;1721562;80;20942;-93
2022/08/19 06:59:59;;;;;;;17.95;14.23;;;;;;;36.14;40.35;100251.16;1721843;83;21477;-91
2022/08/19 07:02:26;;;;;;;22.50;20.12;;;;;;;36.22;40.42;100248.41;1721317;81;21535;-92
2022/08/19 07:04:53;;;;;;;27.25;24.52;;;;;;;36.31;39.88;100248.17;1719785;83;20912;-93
2022/08/19 07:07:20;;;;;;;16.60;14.30;;;;;;;36.43;39.74;100246.53;1719783;83;20975;-93
2022/08/19 07:09:47;;;;;;;16.10;14.13;;;;;;;36.55;39.46;100250.34;1720068;83;20951;-94
2022/08/19 07:12:15;;;;;;;21.10;15.08;;;;;;;36.70;39.34;100247.07;1720369;83;21260;-93
2022/08/19 07:14:42;;;;;;;21.25;16.23;;;;;;;36.87;39.10;100250.06;1721024;83;20895;-92
2022/08/19 07:17:10;;;;;;;19.67;16.45;;;;;;;37.04;38.84;100245.64;1722001;83;20931;-91
2022/08/19 07:19:39;;;;;;;21.23;19.15;;;;;;;37.09;38.14;100241.02;1721737;83;20980;-92
2022/08/19 07:22:07;;;;;;;20.30;17.82;;;;;;;37.01;38.09;100244.84;1719487;83;20959;-94
2022/08/19 07:24:37;;;;;;;20.60;18.42;;;;;;;36.92;38.23;100244.58;1724698;81;21323;-93
2022/08/19 07:27:09;;;;;;;22.48;20.17;;;;;;;36.81;38.54;100240.23;1759836;81;20916;-93
2022/08/19 07:29:37;;;;;;;25.82;19.17;;;;;;;36.79;38.38;100238.32;1758709;81;21392;-93
2022/08/19 07:32:05;;;;;;;28.70;22.48;;;;;;;36.94;38.27;100238.30;1759160;80;20861;-92
2022/08/19 07:34:36;;;;;;;23.02;20.52;;;;;;;37.08;37.63;100237.19;1760523;81;20952;-89
2022/08/19 07:37:03;;;;;;;22.00;19.85;;;;;;;37.26;37.30;100239.86;1760644;81;21118;-91
2022/08/19 07:39:35;;;;;;;26.37;21.30;;;;;;;37.40;37.04;100236.80;1760309;80;20896;-92
2022/08/19 07:42:06;;;;;;;22.32;19.98;;;;;;;37.51;36.63;100234.28;1759969;80;21358;-92
2022/08/19 07:44:34;;;;;;;23.10;20.88;;;;;;;37.64;36.94;100236.99;1760265;81;26187;-91
2022/08/19 07:47:03;;;;;;;19.15;16.90;;;;;;;37.87;35.97;100242.32;1760004;81;20900;-95
2022/08/19 07:49:31;;;;;;;24.65;21.80;;;;;;;38.09;35.81;100236.45;1759050;80;20849;-91
2022/08/19 07:52:01;;;;;;;23.57;20.10;;;;;;;38.36;35.56;100243.37;1758890;81;20940;-93
2022/08/19 07:54:31;;;;;;;24.60;20.92;;;;;;;38.53;35.02;100241.06;1759023;81;20943;-92
2022/08/19 07:56:58;;;;;;;21.62;19.37;;;;;;;38.55;34.76;100238.84;1759377;81;20932;-91
2022/08/19 07:59:26;;;;;;;23.52;19.25;;;;;;;38.52;34.97;100239.41;1759442;81;20941;-92
2022/08/19 08:01:53;;;;;;;18.15;16.37;;;;;;;38.56;35.07;100241.84;1760135;81;21137;-92
2022/08/19 08:09:52;;;;;;;19.32;15.38;;;;;;;38.46;34.56;100231.48;1759001;80;20889;-92
2022/08/19 08:12:25;;;;;;;17.20;15.40;;;;;;;38.46;34.25;100230.92;1759624;81;20889;-92
2022/08/19 08:14:58;;;;;;;15.40;13.90;;;;;;;38.50;34.23;100237.50;1759295;81;21229;-90
2022/08/19 08:17:26;;;;;;;17.15;15.30;;;;;;;38.58;34.17;100234.70;1758887;81;20924;-91
2022/08/19 08:19:53;;;;;;;22.67;14.95;;;;;;;38.67;33.76;100234.91;1758847;81;20888;-93
2022/08/19 08:25:10;;;;;;;15.65;14.03;;;;;;;38.92;33.04;100236.55;1756393;81;20861;-94
2022/08/19 08:27:39;;;;;;;16.23;14.23;;;;;;;39.08;33.10;100235.84;1745453;82;21131;-92
2022/08/19 08:30:10;;;;;;;16.17;12.25;;;;;;;39.05;33.44;100230.40;1745375;81;21465;-92
2022/08/19 08:32:37;;;;;;;12.05;10.85;;;;;;;39.03;33.82;100232.61;1744802;81;20964;-93
2022/08/19 08:35:06;;;;;;;13.22;10.63;;;;;;;39.18;32.94;100237.92;1745879;81;20905;-92
2022/08/19 08:37:33;;;;;;;12.58;11.45;;;;;;;39.27;32.70;100237.28;1746086;82;20917;-92
2022/08/19 08:40:03;;;;;;;13.35;12.00;;;;;;;39.33;32.06;100242.95;1745704;82;21197;-92
2022/08/19 08:42:34;;;;;;;14.78;11.45;;;;;;;39.27;32.00;100238.09;1735527;82;20929;-93
2022/08/19 08:45:15;;;;;;;12.15;10.93;;;;;;;39.30;32.78;100238.06;1745384;82;21405;-93
2022/08/19 08:47:46;;;;;;;12.37;10.78;;;;;;;39.34;32.50;100236.36;1745287;81;20900;-93
2022/08/19 08:50:35;;;;;;;11.22;10.23;;;;;;;39.40;32.44;100237.13;1745582;81;20913;-94
2022/08/19 08:53:04;;;;;;;12.82;10.88;;;;;;;39.52;32.15;100238.34;1745885;81;21139;-94
2022/08/19 08:55:32;;;;;;;10.45;9.45;;;;;;;39.70;31.81;100237.28;1745609;80;20889;-93
2022/08/19 08:58:07;;;;;;;11.28;10.38;;;;;;;39.77;31.63;100236.34;1735348;82;20964;-94
2022/08/19 09:00:40;;;;;;;10.32;9.33;;;;;;;39.93;31.53;100235.05;1735079;82;21331;-95
2022/08/19 09:03:25;;;;;;;10.68;9.60;;;;;;;40.15;31.52;100231.66;1735274;82;20901;-95
2022/08/19 09:06:03;;;;;;;11.15;9.98;;;;;;;40.29;31.11;100226.27;1746094;82;21147;-94
2022/08/19 09:08:51;;;;;;;14.33;10.45;;;;;;;40.50;30.26;100230.83;1745451;80;20905;-94
2022/08/19 09:11:38;;;;;;;16.37;10.78;;;;;;;40.44;30.33;100232.59;1746024;81;20948;-93
2022/08/19 09:14:20;;;;;;;12.20;11.20;;;;;;;40.47;30.40;100232.82;1735143;82;20861;-93
2022/08/19 09:16:48;;;;;;;11.10;9.95;;;;;;;40.48;30.12;100228.13;1746244;82;21484;-94
2022/08/19 09:19:17;;;;;;;11.43;9.95;;;;;;;40.15;30.45;100226.73;1736107;80;21259;-94
2022/08/19 09:21:43;;;;;;;11.83;10.00;;;;;;;39.82;30.83;100231.33;1746212;80;20909;-96
2022/08/19 09:24:10;;;;;;;12.90;9.90;;;;;;;39.57;31.11;100233.33;1735372;82;20866;-95
2022/08/19 09:26:37;;;;;;;10.53;9.53;;;;;;;39.37;31.39;100236.58;1755631;81;20951;-95
2022/08/19 09:29:05;;;;;;;14.85;10.00;;;;;;;39.15;31.60;100234.41;1760392;81;20967;-94
2022/08/19 09:31:37;;;;;;;10.23;9.13;;;;;;;38.68;31.62;100228.30;1745038;81;21255;-93
2022/08/19 09:34:04;;;;;;;13.30;9.50;;;;;;;38.05;32.07;100234.02;1744427;80;20763;-93
2022/08/19 09:36:35;;;;;;;12.37;9.18;;;;;;;37.71;32.89;100229.28;1760860;81;20955;-92
2022/08/19 09:39:04;;;;;;;10.10;8.70;;;;;;;37.66;33.38;100227.92;1741937;81;20884;-94
2022/08/19 09:41:28;;;;;;;9.98;8.43;;;;;;;37.65;33.88;100229.04;1758718;81;20897;-94
2022/08/19 09:43:56;;;;;;;8.08;7.37;;;;;;;37.71;33.82;100235.31;1759427;80;21190;-94
2022/08/19 09:46:27;;;;;;;7.55;6.92;;;;;;;37.99;32.09;100230.20;1756760;80;20932;-95
2022/08/19 09:48:54;;;;;;;8.55;6.90;;;;;;;38.33;32.27;100241.18;1697529;83;20979;-92
2022/08/19 09:51:23;;;;;;;6.95;6.33;;;;;;;38.69;29.42;100240.35;1697570;83;20947;-92
2022/08/19 09:53:53;;;;;;;6.10;5.60;;;;;;;38.90;29.21;100238.20;1724317;83;20975;-92
2022/08/19 09:56:21;;;;;;;6.28;5.70;;;;;;;39.10;28.54;100234.44;1724566;83;21449;-94
2022/08/19 09:58:48;;;;;;;6.25;5.60;;;;;;;39.32;28.71;100233.91;1724364;82;20982;-92
2022/08/19 10:01:23;;;;;;;6.55;5.95;;;;;;;39.62;28.29;100228.33;1725320;80;20955;-93
2022/08/19 10:03:53;;;;;;;7.03;6.30;;;;;;;39.88;27.63;100237.05;1725304;80;21037;-92
2022/08/19 10:06:22;;;;;;;6.55;5.95;;;;;;;40.20;27.51;100239.03;1725277;81;21030;-93
2022/08/19 10:08:50;;;;;;;6.67;5.72;;;;;;;40.48;27.91;100242.69;1723991;83;20955;-95
2022/08/19 10:11:18;;;;;;;6.75;6.22;;;;;;;40.54;27.97;100238.73;1723063;82;20899;-94
2022/08/19 10:13:47;;;;;;;6.00;5.50;;;;;;;40.66;27.53;100236.05;1723336;83;20848;-95
2022/08/19 10:16:21;;;;;;;7.55;6.87;;;;;;;40.75;26.76;100230.95;1723738;83;20856;-94
2022/08/19 10:18:49;;;;;;;7.17;6.15;;;;;;;40.85;26.09;100234.08;1723996;82;20986;-95
2022/08/19 10:21:23;;;;;;;6.75;6.12;;;;;;;40.91;25.91;100223.78;1723301;83;22940;-95
2022/08/19 10:23:54;;;;;;;6.60;6.05;;;;;;;41.00;25.94;100229.66;1722215;83;20875;-93
2022/08/19 10:26:24;;;;;;;7.47;6.78;;;;;;;41.08;25.95;100226.73;1720023;83;20896;-93
2022/08/19 10:28:51;;;;;;;9.15;6.92;;;;;;;40.97;26.02;100224.75;1717397;83;20956;-91
2022/08/19 10:31:23;;;;;;;8.05;6.85;;;;;;;40.77;26.85;100232.03;1717199;83;20916;-95
2022/08/19 10:33:50;;;;;;;;;;;;;;;40.61;27.40;100238.34;1719318;83;21524;-94
2022/08/19 10:36:19;;;;;;;7.55;6.95;;;;;;;40.30;26.54;100241.63;1701459;84;20165;-95
2022/08/19 10:41:24;;;;;;;6.70;6.25;;;;;;;40.23;27.48;100239.80;1809929;79;23255;-93
2022/08/19 10:43:54;;;;;;;7.30;6.33;;;;;;;40.31;27.36;100237.77;1776083;78;20865;-92
2022/08/19 10:46:24;;;;;;;6.30;5.90;;;;;;;40.52;26.71;100234.66;1774589;80;21084;-94
2022/08/19 10:48:51;;;;;;;7.12;6.42;;;;;;;40.43;26.62;100232.36;1740561;82;20985;-95
2022/08/19 10:54:07;;;;;;;9.20;6.37;;;;;;;39.72;27.58;100224.08;1737768;82;21032;-94
2022/08/19 10:56:51;;;;;;;7.62;6.85;;;;;;;39.19;27.83;100220.90;1742703;82;20850;-95
2022/08/19 10:59:27;;;;;;;7.65;6.95;;;;;;;38.71;28.96;100220.85;1742371;80;21362;-94
2022/08/19 11:01:55;;;;;;;9.38;7.55;;;;;;;38.13;29.21;100212.03;1718198;82;21357;-93
2022/08/19 11:04:24;;;;;;;9.13;7.20;;;;;;;37.56;30.20;100218.98;1717928;82;20924;-95
2022/08/19 11:06:50;;;;;;;12.03;7.62;;;;;;;37.12;30.85;100218.57;1741611;82;21362;-93
2022/08/19 11:09:20;;;;;;;7.78;7.08;;;;;;;36.74;31.44;100224.13;1741345;82;20950;-92
2022/08/19 11:11:48;;;;;;;9.08;7.62;;;;;;;36.34;32.09;100219.49;1746217;82;21158;-92
2022/08/19 11:14:18;;;;;;;8.60;7.45;;;;;;;35.97;33.04;100216.42;1719590;82;21007;-95
2022/08/19 11:16:55;;;;;;;9.80;8.93;;;;;;;35.62;34.14;100222.91;1755542;79;20920;-94
2022/08/19 11:19:23;;;;;;;10.88;9.23;;;;;;;35.31;35.35;100229.30;1755522;80;20932;-94
2022/08/19 11:21:54;;;;;;;10.98;9.95;;;;;;;34.97;36.57;100236.45;1754813;82;20888;-95
2022/08/19 11:24:24;;;;;;;11.33;10.05;;;;;;;34.61;37.84;100238.38;1754485;80;21061;-96
2022/08/19 11:26:58;;;;;;;20.57;11.22;;;;;;;34.23;39.13;100236.16;1754949;81;21029;-96
2022/08/19 11:29:27;;;;;;;18.57;11.97;;;;;;;33.47;41.31;100225.79;1755720;80;20865;-95
2022/08/19 11:32:03;;;;;;;12.00;10.85;;;;;;;33.47;41.31;100225.79;1755850;79;21609;-96
2022/08/19 11:34:29;;;;;;;14.28;11.20;;;;;;;33.02;42.53;100227.63;1756032;79;20939;-95
2022/08/19 11:36:58;;;;;;;11.55;10.55;;;;;;;32.59;43.51;100223.72;1756036;78;21237;-95
2022/08/19 11:39:28;;;;;;;17.82;11.63;;;;;;;32.20;44.38;100228.48;1756007;78;21010;-95
2022/08/19 11:41:57;;;;;;;15.90;12.33;;;;;;;31.78;45.94;100232.84;1755139;81;20897;-95
2022/08/19 11:44:30;;;;;;;13.28;10.95;;;;;;;31.39;47.63;100228.53;1734172;82;20885;-94
2022/08/19 11:47:00;;;;;;;12.00;10.95;;;;;;;31.04;48.70;100225.88;1755332;81;20873;-95